• Join FlightAware (Why Join?)
  • Login
  • US Flag 
 
02:39AM EST


 

Airport Tracker/Info


-or-


 

Live Flight TrackerFlight Track Log ✈ ASQ5873 ✈ 05-May-2013 ✈ KGRB - KORD

Flight Track Log - Related Links

Times and Time Zones

All times are in EDT time to prevent confusion due to time zone crossing. See the ASQ5873 flight status page for this flight to view local times or setup timezone preferences in your user account.

Time Position Orientation Groundspeed Altitude Reporting Facility
EDT Latitude Longitude Course Direction KTS MPH feet Rate Location/Type
06:58AM 44.4667 -88.0500 176° South 222 255 5,100  Level KMKE
06:58AM 44.4333 -88.0500 180° South 237 273 5,800 2,520 Climbing KMKE
06:59AM 44.3667 -88.0500 180° South 264 304 8,400 2,400 Climbing KMKE
07:00AM 44.3079 -88.1749 175° South  Level FlightAware Approximate
07:00AM 44.3000 -88.0667 190° South 270 311 10,700  Level KMKE
07:01AM 44.2271 -88.1660 176° South  Level FlightAware Approximate
07:01AM 44.2000 -88.0667 180° South 339 390 11,700  Level KMKE
07:02AM 44.1463 -88.1580 176° South  Level FlightAware Approximate
07:02AM 44.1167 -88.0667 180° South 354 407 12,800  Level KMKE
07:03AM 44.0870 -88.1520 176° South  Level FlightAware Approximate
07:03AM 44.0214 -88.0783 185° South 366 421 13,100  Level Minneapolis Center
07:04AM 43.9153 -88.0867 183° South 378 435 13,000 -60 Descending Minneapolis Center
07:05AM 43.8094 -88.0944 183° South 378 435 13,000  Level Minneapolis Center
07:06AM 43.7031 -88.1033 183° South 380 437 13,000  Level Minneapolis Center
07:07AM 43.5964 -88.1122 183° South 382 440 13,000  Level Chicago Center
07:08AM 43.5067 -88.1178 183° South 383 441 13,000  Level Chicago Center
07:09AM 43.4000 -88.1297 185° South 381 438 13,000  Level Chicago Center
07:10AM 43.2953 -88.1603 192° South 380 437 13,000  Level Chicago Center
07:11AM 43.1922 -88.1911 192° South 377 434 13,000 -420 Level Chicago Center
07:12AM 43.0875 -88.2108 188° South 378 435 12,200 -1,200 Descending Chicago Center
07:13AM 42.9889 -88.2169 183° South 357 411 10,700 -1,140 Descending Chicago Center
07:14AM 42.8875 -88.2219 182° South 361 415 10,000 -360 Descending Chicago Center
07:15AM 42.7886 -88.2272 182° South 357 411 10,000 -540 Level Chicago Center
07:16AM 42.6931 -88.2331 183° South 292 336 9,000 -1,020 Descending Chicago Center
07:17AM 42.6156 -88.2361 182° South 279 321 8,000 -540 Descending Chicago Center
07:18AM 42.5389 -88.2408 183° South 276 318 8,000 -60 Level Chicago Center
07:19AM 42.4611 -88.2575 189° South 281 323 7,900 -540 Descending Chicago Center
07:20AM 42.3883 -88.2781 192° South 270 311 7,000 -540 Descending Chicago Center
07:21AM 42.3211 -88.2847 184° South 260 299 6,900 -600 Descending Chicago Center
07:22AM 42.2528 -88.2625 166° South 253 291 5,900 -1,020 Descending Chicago Center
07:23AM 42.1803 -88.2503 173° South 260 299 4,900 -900 Descending Chicago Center
07:24AM 42.1108 -88.2306 168° South 258 297 4,100 -780 Descending Chicago Center
07:26AM 42.0472 -88.1925 156° South 251 289 3,400 -840 Descending Chicago Center
07:27AM 41.9892 -88.1467 150° Southeast 246 283 2,500 -420 Descending Chicago Center
07:27AM 41.9667 -88.0833 116° Southeast 210 242 2,700 -300 Climbing Chicago TRACON
07:28AM 41.9667 -88.0167 90° East 164 189 2,000 -720 Descending Chicago TRACON